Burtchville Township, Michigan
Current Conditions -  °F | °C
As of 11:58 AM on Tuesday 27 Jan 2015 (Local Time) from KPHN Reporting Station
Broken Clouds Broken Clouds  
Wind Chill: 11°   Ceiling: 1800
Heat Index: 21°   Visibility: 10mi
Dew Point: 14°   Wind: 9mph
Humidity: 74%   Direction: 20°NNE
Pressure: 30.11"   Gusts: 16mph
Location:  43.0393°N, 82.4847°W
Report Text: KPHN 271658Z AUTO 02008G14KT 10SM BKN018 M06/M10 A3011 RMK AO2
Loading
Personal Weather Stations






























Interactive Weather Map New forecast layout! Learn more

10-Day Weather Forecast

Advertisements
Track Severe Weather on mobile